sensor_id;sensor_type;location;lat;lon;timestamp;temperature;humidity
48734;DHT22;34530;52.084;5.146;2022-11-15T00:01:35;17.30;74.60
48734;DHT22;34530;52.084;5.146;2022-11-15T00:04:03;17.30;74.70
48734;DHT22;34530;52.084;5.146;2022-11-15T00:06:29;17.30;74.70
48734;DHT22;34530;52.084;5.146;2022-11-15T00:08:57;17.30;74.80
48734;DHT22;34530;52.084;5.146;2022-11-15T00:11:22;17.30;74.80
48734;DHT22;34530;52.084;5.146;2022-11-15T00:13:48;17.30;74.90
48734;DHT22;34530;52.084;5.146;2022-11-15T00:16:13;17.20;74.90
48734;DHT22;34530;52.084;5.146;2022-11-15T00:18:39;17.20;74.90
48734;DHT22;34530;52.084;5.146;2022-11-15T00:21:07;17.20;75.00
48734;DHT22;34530;52.084;5.146;2022-11-15T00:23:33;17.20;74.90
48734;DHT22;34530;52.084;5.146;2022-11-15T00:25:59;17.20;74.90
48734;DHT22;34530;52.084;5.146;2022-11-15T00:28:25;17.20;75.00
48734;DHT22;34530;52.084;5.146;2022-11-15T00:30:51;17.20;74.90
48734;DHT22;34530;52.084;5.146;2022-11-15T00:33:17;17.10;74.90
48734;DHT22;34530;52.084;5.146;2022-11-15T00:35:43;17.10;74.90
48734;DHT22;34530;52.084;5.146;2022-11-15T00:38:08;17.10;75.00
48734;DHT22;34530;52.084;5.146;2022-11-15T00:40:34;17.10;75.00
48734;DHT22;34530;52.084;5.146;2022-11-15T00:43:00;17.10;75.00
48734;DHT22;34530;52.084;5.146;2022-11-15T00:45:25;17.10;75.00
48734;DHT22;34530;52.084;5.146;2022-11-15T00:47:51;17.10;75.00
48734;DHT22;34530;52.084;5.146;2022-11-15T00:50:17;17.00;75.00
48734;DHT22;34530;52.084;5.146;2022-11-15T00:52:43;17.00;75.10
48734;DHT22;34530;52.084;5.146;2022-11-15T00:55:14;17.00;75.00
48734;DHT22;34530;52.084;5.146;2022-11-15T00:57:40;17.00;75.00
48734;DHT22;34530;52.084;5.146;2022-11-15T01:00:06;17.00;75.10
48734;DHT22;34530;52.084;5.146;2022-11-15T01:02:32;17.00;75.10
48734;DHT22;34530;52.084;5.146;2022-11-15T01:04:58;17.00;75.10
48734;DHT22;34530;52.084;5.146;2022-11-15T01:07:23;17.00;75.10
48734;DHT22;34530;52.084;5.146;2022-11-15T01:09:49;17.00;75.10
48734;DHT22;34530;52.084;5.146;2022-11-15T01:12:15;16.90;75.00
48734;DHT22;34530;52.084;5.146;2022-11-15T01:14:40;16.90;75.00
48734;DHT22;34530;52.084;5.146;2022-11-15T01:17:06;16.90;75.00
48734;DHT22;34530;52.084;5.146;2022-11-15T01:19:31;16.90;75.00
48734;DHT22;34530;52.084;5.146;2022-11-15T01:21:57;16.90;75.00
48734;DHT22;34530;52.084;5.146;2022-11-15T01:24:23;16.90;75.00
48734;DHT22;34530;52.084;5.146;2022-11-15T01:26:48;16.90;75.00
48734;DHT22;34530;52.084;5.146;2022-11-15T01:29:14;16.90;75.00
48734;DHT22;34530;52.084;5.146;2022-11-15T01:31:39;16.80;75.00
48734;DHT22;34530;52.084;5.146;2022-11-15T01:34:05;16.80;75.00
48734;DHT22;34530;52.084;5.146;2022-11-15T01:36:30;16.80;75.00
48734;DHT22;34530;52.084;5.146;2022-11-15T01:38:58;16.80;75.00
48734;DHT22;34530;52.084;5.146;2022-11-15T01:41:25;16.80;75.00
48734;DHT22;34530;52.084;5.146;2022-11-15T01:43:53;16.80;75.00
48734;DHT22;34530;52.084;5.146;2022-11-15T01:46:22;16.80;75.00
48734;DHT22;34530;52.084;5.146;2022-11-15T01:48:51;16.80;75.00
48734;DHT22;34530;52.084;5.146;2022-11-15T01:51:20;16.80;74.90
48734;DHT22;34530;52.084;5.146;2022-11-15T01:53:50;16.80;74.90
48734;DHT22;34530;52.084;5.146;2022-11-15T01:56:21;16.80;75.00
48734;DHT22;34530;52.084;5.146;2022-11-15T01:58:48;16.70;74.90
48734;DHT22;34530;52.084;5.146;2022-11-15T02:01:14;16.70;75.00
48734;DHT22;34530;52.084;5.146;2022-11-15T02:03:54;16.70;75.00
48734;DHT22;34530;52.084;5.146;2022-11-15T02:06:22;16.70;74.90
48734;DHT22;34530;52.084;5.146;2022-11-15T02:08:48;16.70;75.00
48734;DHT22;34530;52.084;5.146;2022-11-15T02:11:14;16.70;75.00
48734;DHT22;34530;52.084;5.146;2022-11-15T02:13:40;16.70;75.00
48734;DHT22;34530;52.084;5.146;2022-11-15T02:16:23;16.70;75.00
48734;DHT22;34530;52.084;5.146;2022-11-15T02:22:15;16.70;75.00
48734;DHT22;34530;52.084;5.146;2022-11-15T02:33:27;16.60;75.00
48734;DHT22;34530;52.084;5.146;2022-11-15T02:39:02;16.60;75.00
48734;DHT22;34530;52.084;5.146;2022-11-15T02:44:55;16.50;75.00
48734;DHT22;34530;52.084;5.146;2022-11-15T02:47:23;16.50;75.10
48734;DHT22;34530;52.084;5.146;2022-11-15T02:49:52;16.50;75.10
48734;DHT22;34530;52.084;5.146;2022-11-15T02:52:23;16.50;75.10
48734;DHT22;34530;52.084;5.146;2022-11-15T02:55:00;16.50;75.10
48734;DHT22;34530;52.084;5.146;2022-11-15T02:57:44;16.50;75.10
48734;DHT22;34530;52.084;5.146;2022-11-15T03:00:12;16.50;75.10
48734;DHT22;34530;52.084;5.146;2022-11-15T03:05:25;16.50;75.10
48734;DHT22;34530;52.084;5.146;2022-11-15T03:10:40;16.50;75.20
48734;DHT22;34530;52.084;5.146;2022-11-15T03:15:44;16.40;75.10
48734;DHT22;34530;52.084;5.146;2022-11-15T03:18:19;16.50;75.20
48734;DHT22;34530;52.084;5.146;2022-11-15T03:20:46;16.40;75.20
48734;DHT22;34530;52.084;5.146;2022-11-15T03:23:13;16.40;75.20
48734;DHT22;34530;52.084;5.146;2022-11-15T03:25:41;16.40;75.20
48734;DHT22;34530;52.084;5.146;2022-11-15T03:28:11;16.40;75.20
48734;DHT22;34530;52.084;5.146;2022-11-15T03:30:39;16.40;75.20
48734;DHT22;34530;52.084;5.146;2022-11-15T03:33:05;16.40;75.20
48734;DHT22;34530;52.084;5.146;2022-11-15T03:35:37;16.40;75.90
48734;DHT22;34530;52.084;5.146;2022-11-15T03:38:15;16.50;75.30
48734;DHT22;34530;52.084;5.146;2022-11-15T03:40:47;16.40;75.30
48734;DHT22;34530;52.084;5.146;2022-11-15T03:43:41;16.40;75.30
48734;DHT22;34530;52.084;5.146;2022-11-15T03:46:14;16.40;75.20
48734;DHT22;34530;52.084;5.146;2022-11-15T03:48:43;16.40;75.30
48734;DHT22;34530;52.084;5.146;2022-11-15T03:51:12;16.40;75.30
48734;DHT22;34530;52.084;5.146;2022-11-15T03:53:37;16.30;75.30
48734;DHT22;34530;52.084;5.146;2022-11-15T03:56:03;16.30;76.10
48734;DHT22;34530;52.084;5.146;2022-11-15T03:58:29;16.30;75.30
48734;DHT22;34530;52.084;5.146;2022-11-15T04:00:54;16.30;75.30
48734;DHT22;34530;52.084;5.146;2022-11-15T04:03:20;16.30;75.40
48734;DHT22;34530;52.084;5.146;2022-11-15T04:05:45;16.30;75.40
48734;DHT22;34530;52.084;5.146;2022-11-15T04:08:11;16.30;75.40
48734;DHT22;34530;52.084;5.146;2022-11-15T04:10:36;16.30;75.40
48734;DHT22;34530;52.084;5.146;2022-11-15T04:13:02;16.30;75.40
48734;DHT22;34530;52.084;5.146;2022-11-15T04:15:28;16.30;75.40
48734;DHT22;34530;52.084;5.146;2022-11-15T04:17:56;16.30;75.40
48734;DHT22;34530;52.084;5.146;2022-11-15T04:20:27;16.30;75.40
48734;DHT22;34530;52.084;5.146;2022-11-15T04:23:17;16.30;75.50
48734;DHT22;34530;52.084;5.146;2022-11-15T04:26:07;16.30;75.50
48734;DHT22;34530;52.084;5.146;2022-11-15T04:28:33;16.20;75.40
48734;DHT22;34530;52.084;5.146;2022-11-15T04:30:59;16.30;75.60
48734;DHT22;34530;52.084;5.146;2022-11-15T04:33:24;16.20;75.50
48734;DHT22;34530;52.084;5.146;2022-11-15T04:35:50;16.20;75.50
48734;DHT22;34530;52.084;5.146;2022-11-15T04:38:39;16.30;75.60
48734;DHT22;34530;52.084;5.146;2022-11-15T04:41:05;16.20;75.50
48734;DHT22;34530;52.084;5.146;2022-11-15T04:43:30;16.20;75.50
48734;DHT22;34530;52.084;5.146;2022-11-15T04:45:56;16.20;75.50
48734;DHT22;34530;52.084;5.146;2022-11-15T04:48:21;16.20;76.30
48734;DHT22;34530;52.084;5.146;2022-11-15T04:50:50;16.20;75.50
48734;DHT22;34530;52.084;5.146;2022-11-15T04:53:16;16.20;75.50
48734;DHT22;34530;52.084;5.146;2022-11-15T04:55:45;16.20;75.60
48734;DHT22;34530;52.084;5.146;2022-11-15T04:58:10;16.20;75.60
48734;DHT22;34530;52.084;5.146;2022-11-15T05:00:36;16.20;75.60
48734;DHT22;34530;52.084;5.146;2022-11-15T05:03:01;16.20;75.60
48734;DHT22;34530;52.084;5.146;2022-11-15T05:05:45;16.20;75.60
48734;DHT22;34530;52.084;5.146;2022-11-15T05:08:11;16.20;75.60
48734;DHT22;34530;52.084;5.146;2022-11-15T05:10:36;16.20;75.70
48734;DHT22;34530;52.084;5.146;2022-11-15T05:13:02;16.20;75.60
48734;DHT22;34530;52.084;5.146;2022-11-15T05:15:27;16.20;75.60
48734;DHT22;34530;52.084;5.146;2022-11-15T05:17:58;16.20;75.70
48734;DHT22;34530;52.084;5.146;2022-11-15T05:20:24;16.20;75.70
48734;DHT22;34530;52.084;5.146;2022-11-15T05:22:49;16.20;75.70
48734;DHT22;34530;52.084;5.146;2022-11-15T05:25:15;16.10;75.70
48734;DHT22;34530;52.084;5.146;2022-11-15T05:27:41;16.10;75.70
48734;DHT22;34530;52.084;5.146;2022-11-15T05:30:07;16.10;75.70
48734;DHT22;34530;52.084;5.146;2022-11-15T05:32:32;16.10;75.70
48734;DHT22;34530;52.084;5.146;2022-11-15T05:34:58;16.10;75.70
48734;DHT22;34530;52.084;5.146;2022-11-15T05:37:24;16.10;75.70
48734;DHT22;34530;52.084;5.146;2022-11-15T05:39:49;16.10;75.70
48734;DHT22;34530;52.084;5.146;2022-11-15T05:42:16;16.10;75.70
48734;DHT22;34530;52.084;5.146;2022-11-15T05:44:46;16.10;75.70
48734;DHT22;34530;52.084;5.146;2022-11-15T05:47:19;16.10;75.70
48734;DHT22;34530;52.084;5.146;2022-11-15T05:49:46;16.10;75.70
48734;DHT22;34530;52.084;5.146;2022-11-15T05:52:16;16.10;75.70
48734;DHT22;34530;52.084;5.146;2022-11-15T05:54:42;16.10;75.70
48734;DHT22;34530;52.084;5.146;2022-11-15T05:57:08;16.10;75.70
48734;DHT22;34530;52.084;5.146;2022-11-15T05:59:34;16.10;75.80
48734;DHT22;34530;52.084;5.146;2022-11-15T06:02:00;16.10;75.80
48734;DHT22;34530;52.084;5.146;2022-11-15T06:04:26;16.10;75.80
48734;DHT22;34530;52.084;5.146;2022-11-15T06:06:52;16.10;75.80
48734;DHT22;34530;52.084;5.146;2022-11-15T06:09:17;16.10;75.80
48734;DHT22;34530;52.084;5.146;2022-11-15T06:11:43;16.10;75.80
48734;DHT22;34530;52.084;5.146;2022-11-15T06:14:09;16.10;75.80
48734;DHT22;34530;52.084;5.146;2022-11-15T06:16:34;16.10;75.90
48734;DHT22;34530;52.084;5.146;2022-11-15T06:19:00;16.10;75.90
48734;DHT22;34530;52.084;5.146;2022-11-15T06:21:25;16.10;76.00
48734;DHT22;34530;52.084;5.146;2022-11-15T06:23:53;16.10;76.10
48734;DHT22;34530;52.084;5.146;2022-11-15T06:26:19;16.10;76.20
48734;DHT22;34530;52.084;5.146;2022-11-15T06:28:44;16.10;76.10
48734;DHT22;34530;52.084;5.146;2022-11-15T06:31:11;16.10;76.20
48734;DHT22;34530;52.084;5.146;2022-11-15T06:33:37;16.10;76.50
48734;DHT22;34530;52.084;5.146;2022-11-15T06:36:06;16.10;76.40
48734;DHT22;34530;52.084;5.146;2022-11-15T06:38:32;16.10;77.10
48734;DHT22;34530;52.084;5.146;2022-11-15T06:41:05;16.10;76.40
48734;DHT22;34530;52.084;5.146;2022-11-15T06:43:31;16.10;76.50
48734;DHT22;34530;52.084;5.146;2022-11-15T06:46:00;16.10;76.50
48734;DHT22;34530;52.084;5.146;2022-11-15T06:48:27;16.10;76.50
48734;DHT22;34530;52.084;5.146;2022-11-15T06:50:53;16.10;76.50
48734;DHT22;34530;52.084;5.146;2022-11-15T06:53:19;16.10;76.50
48734;DHT22;34530;52.084;5.146;2022-11-15T06:55:45;16.10;76.50
48734;DHT22;34530;52.084;5.146;2022-11-15T06:58:11;16.10;76.60
48734;DHT22;34530;52.084;5.146;2022-11-15T07:00:36;16.00;76.50
48734;DHT22;34530;52.084;5.146;2022-11-15T07:03:02;16.00;76.50
48734;DHT22;34530;52.084;5.146;2022-11-15T07:05:28;16.10;77.30
48734;DHT22;34530;52.084;5.146;2022-11-15T07:07:55;16.00;76.60
48734;DHT22;34530;52.084;5.146;2022-11-15T07:10:22;16.00;76.50
48734;DHT22;34530;52.084;5.146;2022-11-15T07:12:49;16.00;76.60
48734;DHT22;34530;52.084;5.146;2022-11-15T07:15:16;16.00;76.60
48734;DHT22;34530;52.084;5.146;2022-11-15T07:17:42;16.00;76.60
48734;DHT22;34530;52.084;5.146;2022-11-15T07:20:08;16.00;76.70
48734;DHT22;34530;52.084;5.146;2022-11-15T07:22:33;16.00;76.70
48734;DHT22;34530;52.084;5.146;2022-11-15T07:24:59;16.00;76.70
48734;DHT22;34530;52.084;5.146;2022-11-15T07:27:24;16.00;76.70
48734;DHT22;34530;52.084;5.146;2022-11-15T07:29:50;16.00;76.70
48734;DHT22;34530;52.084;5.146;2022-11-15T07:32:16;16.00;76.70
48734;DHT22;34530;52.084;5.146;2022-11-15T07:34:41;16.00;76.70
48734;DHT22;34530;52.084;5.146;2022-11-15T07:37:07;16.00;76.70
48734;DHT22;34530;52.084;5.146;2022-11-15T07:39:32;16.00;76.70
48734;DHT22;34530;52.084;5.146;2022-11-15T07:41:59;16.00;76.70
48734;DHT22;34530;52.084;5.146;2022-11-15T07:44:43;16.00;76.70
48734;DHT22;34530;52.084;5.146;2022-11-15T07:47:09;16.00;76.70
48734;DHT22;34530;52.084;5.146;2022-11-15T07:49:35;16.00;76.70
48734;DHT22;34530;52.084;5.146;2022-11-15T07:52:00;16.00;76.80
48734;DHT22;34530;52.084;5.146;2022-11-15T07:54:26;16.00;76.80
48734;DHT22;34530;52.084;5.146;2022-11-15T07:56:51;15.90;76.70
48734;DHT22;34530;52.084;5.146;2022-11-15T07:59:17;16.00;77.10
48734;DHT22;34530;52.084;5.146;2022-11-15T08:01:42;16.00;77.10
48734;DHT22;34530;52.084;5.146;2022-11-15T08:04:10;16.00;77.30
48734;DHT22;34530;52.084;5.146;2022-11-15T08:06:36;16.10;77.60
48734;DHT22;34530;52.084;5.146;2022-11-15T08:09:02;16.20;77.80
48734;DHT22;34530;52.084;5.146;2022-11-15T08:11:27;16.20;77.80
48734;DHT22;34530;52.084;5.146;2022-11-15T08:13:53;16.20;77.90
48734;DHT22;34530;52.084;5.146;2022-11-15T08:16:19;16.30;78.10
48734;DHT22;34530;52.084;5.146;2022-11-15T08:18:44;16.40;78.20
48734;DHT22;34530;52.084;5.146;2022-11-15T08:21:13;16.40;78.20
48734;DHT22;34530;52.084;5.146;2022-11-15T08:23:40;16.50;78.20
48734;DHT22;34530;52.084;5.146;2022-11-15T08:26:05;16.60;78.30
48734;DHT22;34530;52.084;5.146;2022-11-15T08:28:32;16.60;78.20
48734;DHT22;34530;52.084;5.146;2022-11-15T08:30:57;16.70;78.30
48734;DHT22;34530;52.084;5.146;2022-11-15T08:33:23;16.80;78.30
48734;DHT22;34530;52.084;5.146;2022-11-15T08:35:49;16.80;78.30
48734;DHT22;34530;52.084;5.146;2022-11-15T08:38:15;16.90;78.10
48734;DHT22;34530;52.084;5.146;2022-11-15T08:40:41;16.90;77.90
48734;DHT22;34530;52.084;5.146;2022-11-15T08:43:06;17.00;78.00
48734;DHT22;34530;52.084;5.146;2022-11-15T08:45:33;17.00;77.90
48734;DHT22;34530;52.084;5.146;2022-11-15T08:48:01;17.10;78.00
48734;DHT22;34530;52.084;5.146;2022-11-15T08:50:27;17.20;77.90
48734;DHT22;34530;52.084;5.146;2022-11-15T08:52:53;17.20;77.90
48734;DHT22;34530;52.084;5.146;2022-11-15T08:55:18;17.30;78.00
48734;DHT22;34530;52.084;5.146;2022-11-15T08:57:44;17.40;78.10
48734;DHT22;34530;52.084;5.146;2022-11-15T09:00:11;17.50;78.00
48734;DHT22;34530;52.084;5.146;2022-11-15T09:02:38;17.60;77.90
48734;DHT22;34530;52.084;5.146;2022-11-15T09:05:04;17.70;77.80
48734;DHT22;34530;52.084;5.146;2022-11-15T09:07:30;17.70;77.60
48734;DHT22;34530;52.084;5.146;2022-11-15T09:09:57;17.90;77.30
48734;DHT22;34530;52.084;5.146;2022-11-15T09:12:24;17.90;77.20
48734;DHT22;34530;52.084;5.146;2022-11-15T09:14:49;17.90;76.80
48734;DHT22;34530;52.084;5.146;2022-11-15T09:17:15;18.00;76.60
48734;DHT22;34530;52.084;5.146;2022-11-15T09:19:41;18.00;76.40
48734;DHT22;34530;52.084;5.146;2022-11-15T09:22:07;18.00;76.10
48734;DHT22;34530;52.084;5.146;2022-11-15T09:24:34;18.00;76.00
48734;DHT22;34530;52.084;5.146;2022-11-15T09:27:00;18.10;76.10
48734;DHT22;34530;52.084;5.146;2022-11-15T09:29:26;18.10;76.00
48734;DHT22;34530;52.084;5.146;2022-11-15T09:31:52;18.20;76.00
48734;DHT22;34530;52.084;5.146;2022-11-15T09:34:18;18.30;76.00
48734;DHT22;34530;52.084;5.146;2022-11-15T09:36:43;18.30;75.60
48734;DHT22;34530;52.084;5.146;2022-11-15T09:39:09;18.30;75.30
48734;DHT22;34530;52.084;5.146;2022-11-15T09:44:39;18.30;75.00
48734;DHT22;34530;52.084;5.146;2022-11-15T09:49:32;18.40;74.80
48734;DHT22;34530;52.084;5.146;2022-11-15T09:51:58;18.50;74.00
48734;DHT22;34530;52.084;5.146;2022-11-15T09:54:30;18.40;74.20
48734;DHT22;34530;52.084;5.146;2022-11-15T10:02:36;18.40;74.20
48734;DHT22;34530;52.084;5.146;2022-11-15T10:05:15;18.40;74.20
48734;DHT22;34530;52.084;5.146;2022-11-15T10:08:02;18.40;74.20
48734;DHT22;34530;52.084;5.146;2022-11-15T10:11:01;18.40;74.10
48734;DHT22;34530;52.084;5.146;2022-11-15T10:13:34;18.40;74.00
48734;DHT22;34530;52.084;5.146;2022-11-15T10:19:23;18.40;74.00
48734;DHT22;34530;52.084;5.146;2022-11-15T10:24:44;18.40;74.10
48734;DHT22;34530;52.084;5.146;2022-11-15T10:27:13;18.40;74.10
48734;DHT22;34530;52.084;5.146;2022-11-15T10:29:50;18.40;74.10
48734;DHT22;34530;52.084;5.146;2022-11-15T10:32:20;18.40;74.10
48734;DHT22;34530;52.084;5.146;2022-11-15T10:34:47;18.40;74.10
48734;DHT22;34530;52.084;5.146;2022-11-15T10:37:13;18.50;74.10
48734;DHT22;34530;52.084;5.146;2022-11-15T10:39:39;18.50;74.10
48734;DHT22;34530;52.084;5.146;2022-11-15T10:42:28;18.50;74.10
48734;DHT22;34530;52.084;5.146;2022-11-15T10:44:54;18.60;74.10
48734;DHT22;34530;52.084;5.146;2022-11-15T10:47:22;18.60;74.00
48734;DHT22;34530;52.084;5.146;2022-11-15T10:52:22;18.70;73.90
48734;DHT22;34530;52.084;5.146;2022-11-15T10:54:56;18.80;73.90
48734;DHT22;34530;52.084;5.146;2022-11-15T10:57:36;18.80;73.80
48734;DHT22;34530;52.084;5.146;2022-11-15T11:02:39;18.90;73.70
48734;DHT22;34530;52.084;5.146;2022-11-15T11:05:30;18.90;73.60
48734;DHT22;34530;52.084;5.146;2022-11-15T11:10:38;19.00;73.10
48734;DHT22;34530;52.084;5.146;2022-11-15T11:15:40;18.90;72.80
48734;DHT22;34530;52.084;5.146;2022-11-15T11:21:08;18.90;72.80
48734;DHT22;34530;52.084;5.146;2022-11-15T11:23:59;18.80;72.70
48734;DHT22;34530;52.084;5.146;2022-11-15T11:26:55;18.80;72.70
48734;DHT22;34530;52.084;5.146;2022-11-15T11:29:27;18.70;72.50
48734;DHT22;34530;52.084;5.146;2022-11-15T11:37:20;18.60;72.60
48734;DHT22;34530;52.084;5.146;2022-11-15T11:47:51;18.40;72.60
48734;DHT22;34530;52.084;5.146;2022-11-15T11:50:25;18.40;72.70
48734;DHT22;34530;52.084;5.146;2022-11-15T11:55:45;18.30;72.70
48734;DHT22;34530;52.084;5.146;2022-11-15T11:58:23;18.30;72.80
48734;DHT22;34530;52.084;5.146;2022-11-15T12:00:57;18.30;72.80
48734;DHT22;34530;52.084;5.146;2022-11-15T12:06:04;18.20;72.80
48734;DHT22;34530;52.084;5.146;2022-11-15T12:13:58;18.20;72.80
48734;DHT22;34530;52.084;5.146;2022-11-15T12:16:29;18.10;72.80
48734;DHT22;34530;52.084;5.146;2022-11-15T12:18:59;18.10;72.80
48734;DHT22;34530;52.084;5.146;2022-11-15T12:21:45;18.10;72.80
48734;DHT22;34530;52.084;5.146;2022-11-15T12:24:39;18.10;72.80
48734;DHT22;34530;52.084;5.146;2022-11-15T12:27:38;18.10;72.90
48734;DHT22;34530;52.084;5.146;2022-11-15T12:30:20;18.10;72.90
48734;DHT22;34530;52.084;5.146;2022-11-15T12:32:55;18.00;73.00
48734;DHT22;34530;52.084;5.146;2022-11-15T12:35:42;18.00;73.00
48734;DHT22;34530;52.084;5.146;2022-11-15T12:38:12;18.00;73.00
48734;DHT22;34530;52.084;5.146;2022-11-15T12:41:11;18.00;73.10
48734;DHT22;34530;52.084;5.146;2022-11-15T12:43:39;18.00;73.10
48734;DHT22;34530;52.084;5.146;2022-11-15T12:46:20;18.00;72.90
48734;DHT22;34530;52.084;5.146;2022-11-15T12:57:34;18.10;73.10
48734;DHT22;34530;52.084;5.146;2022-11-15T13:02:39;18.20;73.30
48734;DHT22;34530;52.084;5.146;2022-11-15T13:08:00;18.30;73.50
48734;DHT22;34530;52.084;5.146;2022-11-15T13:12:54;18.40;73.50
48734;DHT22;34530;52.084;5.146;2022-11-15T13:28:31;18.70;73.30
48734;DHT22;34530;52.084;5.146;2022-11-15T13:30:59;18.70;73.20
48734;DHT22;34530;52.084;5.146;2022-11-15T13:33:34;18.80;73.20
48734;DHT22;34530;52.084;5.146;2022-11-15T13:36:06;18.90;73.10
48734;DHT22;34530;52.084;5.146;2022-11-15T13:38:37;18.90;72.90
48734;DHT22;34530;52.084;5.146;2022-11-15T13:41:21;18.90;72.90
48734;DHT22;34530;52.084;5.146;2022-11-15T13:43:49;19.00;72.90
48734;DHT22;34530;52.084;5.146;2022-11-15T13:46:33;19.00;72.80
48734;DHT22;34530;52.084;5.146;2022-11-15T13:49:00;19.10;72.70
48734;DHT22;34530;52.084;5.146;2022-11-15T13:54:19;19.10;72.50
48734;DHT22;34530;52.084;5.146;2022-11-15T13:56:52;19.20;72.40
48734;DHT22;34530;52.084;5.146;2022-11-15T13:59:35;19.20;72.30
48734;DHT22;34530;52.084;5.146;2022-11-15T14:02:13;19.20;72.10
48734;DHT22;34530;52.084;5.146;2022-11-15T14:04:50;19.30;72.00
48734;DHT22;34530;52.084;5.146;2022-11-15T14:07:22;19.30;71.90
48734;DHT22;34530;52.084;5.146;2022-11-15T14:09:48;19.30;71.80
48734;DHT22;34530;52.084;5.146;2022-11-15T14:12:34;19.30;71.70
48734;DHT22;34530;52.084;5.146;2022-11-15T14:15:38;19.30;71.60
48734;DHT22;34530;52.084;5.146;2022-11-15T14:18:05;19.30;71.10
48734;DHT22;34530;52.084;5.146;2022-11-15T14:20:38;19.30;70.90
48734;DHT22;34530;52.084;5.146;2022-11-15T14:23:27;19.30;70.50
48734;DHT22;34530;52.084;5.146;2022-11-15T14:25:57;19.30;70.50
48734;DHT22;34530;52.084;5.146;2022-11-15T14:30:50;19.30;70.80
48734;DHT22;34530;52.084;5.146;2022-11-15T14:33:33;19.40;70.90
48734;DHT22;34530;52.084;5.146;2022-11-15T14:36:19;19.40;70.90
48734;DHT22;34530;52.084;5.146;2022-11-15T14:38:46;19.50;71.00
48734;DHT22;34530;52.084;5.146;2022-11-15T14:41:23;19.50;71.00
48734;DHT22;34530;52.084;5.146;2022-11-15T14:43:50;19.50;71.00
48734;DHT22;34530;52.084;5.146;2022-11-15T14:46:17;19.60;71.00
48734;DHT22;34530;52.084;5.146;2022-11-15T14:48:43;19.60;71.00
48734;DHT22;34530;52.084;5.146;2022-11-15T14:51:16;19.70;71.10
48734;DHT22;34530;52.084;5.146;2022-11-15T14:53:43;19.70;71.10
48734;DHT22;34530;52.084;5.146;2022-11-15T14:56:09;19.70;71.10
48734;DHT22;34530;52.084;5.146;2022-11-15T14:58:35;19.70;71.20
48734;DHT22;34530;52.084;5.146;2022-11-15T15:01:05;19.80;71.30
48734;DHT22;34530;52.084;5.146;2022-11-15T15:03:36;19.80;71.30
48734;DHT22;34530;52.084;5.146;2022-11-15T15:06:01;19.80;71.20
48734;DHT22;34530;52.084;5.146;2022-11-15T15:08:27;19.90;71.40
48734;DHT22;34530;52.084;5.146;2022-11-15T15:10:52;19.90;71.20
48734;DHT22;34530;52.084;5.146;2022-11-15T15:13:21;19.90;71.20
48734;DHT22;34530;52.084;5.146;2022-11-15T15:15:48;19.90;71.20
48734;DHT22;34530;52.084;5.146;2022-11-15T15:18:13;19.90;71.20
48734;DHT22;34530;52.084;5.146;2022-11-15T15:20:41;20.00;71.20
48734;DHT22;34530;52.084;5.146;2022-11-15T15:23:19;20.00;71.20
48734;DHT22;34530;52.084;5.146;2022-11-15T15:25:46;20.00;71.30
48734;DHT22;34530;52.084;5.146;2022-11-15T15:28:13;19.90;70.00
48734;DHT22;34530;52.084;5.146;2022-11-15T15:30:38;19.90;69.60
48734;DHT22;34530;52.084;5.146;2022-11-15T15:33:04;19.80;69.30
48734;DHT22;34530;52.084;5.146;2022-11-15T15:35:32;19.80;69.20
48734;DHT22;34530;52.084;5.146;2022-11-15T15:37:58;19.80;69.20
48734;DHT22;34530;52.084;5.146;2022-11-15T15:40:26;19.70;69.30
48734;DHT22;34530;52.084;5.146;2022-11-15T15:42:52;19.70;69.30
48734;DHT22;34530;52.084;5.146;2022-11-15T15:45:18;19.70;69.40
48734;DHT22;34530;52.084;5.146;2022-11-15T15:47:44;19.70;69.40
48734;DHT22;34530;52.084;5.146;2022-11-15T15:50:29;19.70;69.50
48734;DHT22;34530;52.084;5.146;2022-11-15T15:52:57;19.80;69.10
48734;DHT22;34530;52.084;5.146;2022-11-15T15:55:23;19.70;69.50
48734;DHT22;34530;52.084;5.146;2022-11-15T15:57:49;19.70;69.60
48734;DHT22;34530;52.084;5.146;2022-11-15T16:00:16;19.70;69.70
48734;DHT22;34530;52.084;5.146;2022-11-15T16:02:43;19.60;69.80
48734;DHT22;34530;52.084;5.146;2022-11-15T16:05:09;19.60;70.00
48734;DHT22;34530;52.084;5.146;2022-11-15T16:07:35;19.60;70.00
48734;DHT22;34530;52.084;5.146;2022-11-15T16:10:04;19.60;70.10
48734;DHT22;34530;52.084;5.146;2022-11-15T16:12:38;19.60;70.20
48734;DHT22;34530;52.084;5.146;2022-11-15T16:15:04;19.70;70.30
48734;DHT22;34530;52.084;5.146;2022-11-15T16:17:35;19.70;70.30
48734;DHT22;34530;52.084;5.146;2022-11-15T16:20:02;19.70;70.30
48734;DHT22;34530;52.084;5.146;2022-11-15T16:22:28;19.70;70.30
48734;DHT22;34530;52.084;5.146;2022-11-15T16:24:54;19.70;70.20
48734;DHT22;34530;52.084;5.146;2022-11-15T16:27:21;19.70;70.50
48734;DHT22;34530;52.084;5.146;2022-11-15T16:29:47;20.00;70.30
48734;DHT22;34530;52.084;5.146;2022-11-15T16:32:13;20.00;70.50
48734;DHT22;34530;52.084;5.146;2022-11-15T16:34:39;20.00;70.50
48734;DHT22;34530;52.084;5.146;2022-11-15T16:37:05;20.20;69.80
48734;DHT22;34530;52.084;5.146;2022-11-15T16:39:31;20.10;70.00
48734;DHT22;34530;52.084;5.146;2022-11-15T16:41:57;20.10;70.10
48734;DHT22;34530;52.084;5.146;2022-11-15T16:44:23;20.00;70.10
48734;DHT22;34530;52.084;5.146;2022-11-15T16:46:50;20.00;70.00
48734;DHT22;34530;52.084;5.146;2022-11-15T16:49:19;20.20;69.90
48734;DHT22;34530;52.084;5.146;2022-11-15T16:51:49;20.10;70.00
48734;DHT22;34530;52.084;5.146;2022-11-15T16:54:15;20.00;70.00
48734;DHT22;34530;52.084;5.146;2022-11-15T16:56:41;20.00;70.00
48734;DHT22;34530;52.084;5.146;2022-11-15T16:59:15;20.20;69.10
48734;DHT22;34530;52.084;5.146;2022-11-15T17:01:42;20.00;68.60
48734;DHT22;34530;52.084;5.146;2022-11-15T17:04:18;20.00;68.50
48734;DHT22;34530;52.084;5.146;2022-11-15T17:06:46;19.90;68.40
48734;DHT22;34530;52.084;5.146;2022-11-15T17:09:17;19.80;68.30
48734;DHT22;34530;52.084;5.146;2022-11-15T17:11:44;19.70;68.20
48734;DHT22;34530;52.084;5.146;2022-11-15T17:14:10;19.70;68.30
48734;DHT22;34530;52.084;5.146;2022-11-15T17:16:36;19.70;68.30
48734;DHT22;34530;52.084;5.146;2022-11-15T17:19:10;19.60;68.30
48734;DHT22;34530;52.084;5.146;2022-11-15T17:21:36;19.60;68.30
48734;DHT22;34530;52.084;5.146;2022-11-15T17:24:02;19.50;68.30
48734;DHT22;34530;52.084;5.146;2022-11-15T17:26:28;19.50;68.40
48734;DHT22;34530;52.084;5.146;2022-11-15T17:28:54;19.50;68.40
48734;DHT22;34530;52.084;5.146;2022-11-15T17:31:20;19.50;68.50
48734;DHT22;34530;52.084;5.146;2022-11-15T17:33:46;19.40;68.50
48734;DHT22;34530;52.084;5.146;2022-11-15T17:36:12;19.40;68.50
48734;DHT22;34530;52.084;5.146;2022-11-15T17:38:40;19.40;68.60